Time;durP1;ratioP1;P1;durP2;ratioP2;P2;SDS_P1;SDS_P2;PMS_P1;PMS_P2;Temp;Humidity;BMP_temperature;BMP_pressure;BME280_temperature;BME280_humidity;BME280_pressure;Samples;Min_cycle;Max_cycle;Signal;HPM_P1;HPM_P2
2023/04/29 00:01:24;;;;;;;36.88;22.52;;;9.50;99.90;;;;;;5088766;28;20425;-72
2023/04/29 00:03:49;;;;;;;39.30;22.47;;;9.50;99.90;;;;;;5089151;28;20410;-72
2023/04/29 00:06:15;;;;;;;39.22;22.05;;;9.50;99.90;;;;;;5089612;28;20406;-72
2023/04/29 00:08:41;;;;;;;37.70;20.67;;;9.50;99.90;;;;;;5091358;28;20394;-72
2023/04/29 00:11:07;;;;;;;34.23;20.43;;;9.50;99.90;;;;;;5088810;28;20500;-72
2023/04/29 00:13:32;;;;;;;33.53;20.38;;;9.50;99.90;;;;;;5090280;28;20485;-72
2023/04/29 00:15:58;;;;;;;35.47;21.37;;;9.50;99.90;;;;;;5088392;28;20915;-72
2023/04/29 00:18:24;;;;;;;38.58;22.13;;;9.40;99.90;;;;;;5086575;28;20417;-72
2023/04/29 00:20:49;;;;;;;32.93;21.30;;;9.50;99.90;;;;;;5085564;28;20405;-72
2023/04/29 00:23:15;;;;;;;33.75;21.55;;;9.40;99.90;;;;;;5092404;28;20523;-72
2023/04/29 00:25:41;;;;;;;32.47;19.98;;;9.40;99.90;;;;;;5089345;28;21458;-72
2023/04/29 00:28:06;;;;;;;32.03;20.70;;;9.40;99.90;;;;;;5088938;28;20498;-72
2023/04/29 00:30:33;;;;;;;32.20;20.55;;;9.40;99.90;;;;;;5089433;28;20846;-72
2023/04/29 00:32:59;;;;;;;33.53;20.02;;;9.40;99.90;;;;;;5088823;28;20816;-72
2023/04/29 00:35:24;;;;;;;36.88;19.77;;;9.40;99.90;;;;;;5088856;28;20505;-72
2023/04/29 00:37:50;;;;;;;32.73;19.13;;;9.40;99.90;;;;;;5089101;28;20420;-72
2023/04/29 00:40:16;;;;;;;31.92;18.35;;;9.40;99.90;;;;;;5089223;28;20466;-72
2023/04/29 00:42:42;;;;;;;29.90;17.60;;;9.40;99.90;;;;;;5088082;28;20413;-72
2023/04/29 00:45:10;;;;;;;35.63;19.33;;;9.40;99.90;;;;;;5087852;28;20493;-72
2023/04/29 00:47:36;;;;;;;32.67;17.97;;;9.40;99.90;;;;;;5090883;28;20433;-72
2023/04/29 00:50:01;;;;;;;34.27;18.67;;;9.40;99.90;;;;;;5090614;28;20465;-72
2023/04/29 00:52:30;;;;;;;34.80;18.60;;;9.40;99.90;;;;;;5089449;28;20455;-72
2023/04/29 00:54:56;;;;;;;31.65;17.75;;;9.40;99.90;;;;;;5088744;28;20454;-72
2023/04/29 00:57:22;;;;;;;31.95;18.88;;;9.40;99.90;;;;;;5092034;28;20463;-72
2023/04/29 00:59:48;;;;;;;31.23;18.03;;;9.40;99.90;;;;;;5089727;28;20410;-72
2023/04/29 01:02:16;;;;;;;30.45;17.15;;;9.40;99.90;;;;;;5093381;28;20899;-72
2023/04/29 01:04:42;;;;;;;33.17;18.80;;;9.40;99.90;;;;;;5080934;28;20458;-72
2023/04/29 01:07:15;;;;;;;34.85;19.35;;;9.40;99.90;;;;;;5092544;28;20431;-72
2023/04/29 01:10:31;;;;;;;32.55;19.80;;;9.40;99.90;;;;;;5088297;28;20462;-72
2023/04/29 01:13:13;;;;;;;35.20;20.95;;;9.40;99.90;;;;;;5094168;28;20964;-72
2023/04/29 01:15:53;;;;;;;36.85;20.50;;;9.40;99.90;;;;;;5088491;28;20447;-72
2023/04/29 01:18:35;;;;;;;33.70;19.60;;;9.40;99.90;;;;;;5090953;28;20418;-72
2023/04/29 01:21:01;;;;;;;37.10;19.63;;;9.40;99.90;;;;;;5087545;28;20768;-72
2023/04/29 01:23:30;;;;;;;33.43;18.53;;;9.40;99.90;;;;;;5089122;28;20829;-72
2023/04/29 01:25:56;;;;;;;33.33;17.35;;;9.40;99.90;;;;;;5090512;28;20503;-72
2023/04/29 01:28:55;;;;;;;31.25;18.42;;;9.40;99.90;;;;;;5088321;28;20505;-72
2023/04/29 01:31:30;;;;;;;28.73;16.13;;;9.40;99.90;;;;;;5072710;28;20513;-72
2023/04/29 01:34:06;;;;;;;29.17;15.20;;;9.40;99.90;;;;;;5087342;28;20409;-72
2023/04/29 01:36:52;;;;;;;27.88;15.88;;;9.40;99.90;;;;;;5074999;28;20406;-72
2023/04/29 01:39:36;;;;;;;28.73;16.08;;;9.30;99.90;;;;;;5086923;28;20411;-72
2023/04/29 01:42:26;;;;;;;27.15;16.67;;;9.30;99.90;;;;;;5086640;28;20624;-72
2023/04/29 01:44:55;;;;;;;27.02;15.93;;;9.30;99.90;;;;;;5076874;28;20506;-72
2023/04/29 01:47:22;;;;;;;31.38;17.05;;;9.30;99.90;;;;;;5086137;28;20826;-72
2023/04/29 01:49:48;;;;;;;28.05;17.20;;;9.20;99.90;;;;;;5085826;28;20564;-72
2023/04/29 01:52:14;;;;;;;29.43;16.23;;;9.20;99.90;;;;;;5087443;28;20437;-72
2023/04/29 01:54:40;;;;;;;30.90;15.97;;;9.20;99.90;;;;;;5087362;28;20426;-72
2023/04/29 01:57:05;;;;;;;28.77;15.67;;;9.20;99.90;;;;;;5087153;28;20401;-72
2023/04/29 01:59:31;;;;;;;27.05;15.63;;;9.20;99.90;;;;;;5087540;28;20941;-72
2023/04/29 02:01:57;;;;;;;27.38;14.38;;;9.10;99.90;;;;;;5087598;28;20484;-72
2023/04/29 02:04:24;;;;;;;25.60;15.32;;;9.10;99.90;;;;;;5087585;28;20402;-73
2023/04/29 02:06:51;;;;;;;29.17;15.50;;;9.10;99.90;;;;;;5087483;28;20473;-72
2023/04/29 02:09:17;;;;;;;24.15;15.32;;;9.10;99.90;;;;;;5086405;28;20927;-72
2023/04/29 02:11:43;;;;;;;24.50;15.10;;;9.10;99.90;;;;;;5087297;28;20422;-72
2023/04/29 02:14:08;;;;;;;32.58;16.38;;;9.10;99.90;;;;;;5086787;28;20398;-72
2023/04/29 02:16:34;;;;;;;24.30;15.23;;;9.10;99.90;;;;;;5087451;28;20398;-72
2023/04/29 02:18:59;;;;;;;26.80;15.30;;;9.10;99.90;;;;;;5087372;28;20430;-73
2023/04/29 02:21:26;;;;;;;25.30;15.03;;;9.10;99.90;;;;;;5087820;28;20398;-72
2023/04/29 02:23:53;;;;;;;27.13;15.03;;;9.10;99.90;;;;;;5089754;28;20392;-72
2023/04/29 02:26:19;;;;;;;25.45;14.68;;;9.10;99.90;;;;;;5087882;28;20500;-73
2023/04/29 02:28:45;;;;;;;27.33;14.73;;;9.10;99.90;;;;;;5068207;28;21051;-73
2023/04/29 02:31:11;;;;;;;25.13;14.80;;;9.10;99.90;;;;;;5086478;28;20408;-72
2023/04/29 02:33:37;;;;;;;26.93;14.23;;;9.00;99.90;;;;;;5086743;28;20402;-73
2023/04/29 02:36:03;;;;;;;27.58;15.23;;;9.00;99.90;;;;;;5086105;28;20459;-72
2023/04/29 02:38:28;;;;;;;22.38;14.15;;;9.00;99.90;;;;;;5086183;28;20405;-72
2023/04/29 02:40:54;;;;;;;26.03;14.30;;;9.00;99.90;;;;;;5085993;28;20523;-73
2023/04/29 02:43:19;;;;;;;25.90;14.20;;;9.00;99.90;;;;;;5089074;28;20425;-72
2023/04/29 02:45:45;;;;;;;27.37;15.13;;;9.00;99.90;;;;;;5090823;28;21053;-73
2023/04/29 02:48:10;;;;;;;25.08;14.82;;;9.00;99.90;;;;;;5093432;28;20389;-72
2023/04/29 02:50:36;;;;;;;27.57;15.40;;;9.00;99.90;;;;;;5090610;28;20472;-72
2023/04/29 02:53:02;;;;;;;24.92;15.50;;;9.00;99.90;;;;;;5091286;28;20395;-72
2023/04/29 02:55:27;;;;;;;24.50;15.70;;;9.10;99.90;;;;;;5089125;28;20496;-73
2023/04/29 02:57:53;;;;;;;25.67;14.82;;;9.00;99.90;;;;;;5089257;28;20475;-72
2023/04/29 03:00:19;;;;;;;24.93;14.90;;;9.00;99.90;;;;;;5089021;28;20413;-72
2023/04/29 03:02:45;;;;;;;27.33;15.10;;;9.10;99.90;;;;;;5088688;28;20413;-72
2023/04/29 03:05:10;;;;;;;23.57;14.67;;;9.10;99.90;;;;;;5089393;28;20398;-72
2023/04/29 03:07:36;;;;;;;24.52;14.65;;;9.10;99.90;;;;;;5090055;28;20434;-72
2023/04/29 03:10:02;;;;;;;30.63;15.73;;;9.10;99.90;;;;;;5089981;28;20430;-72
2023/04/29 03:12:27;;;;;;;24.83;15.18;;;9.10;99.90;;;;;;5088287;28;20410;-73
2023/04/29 03:14:53;;;;;;;26.57;15.20;;;9.10;99.90;;;;;;5089360;28;20468;-72
2023/04/29 03:17:18;;;;;;;24.88;15.00;;;9.10;99.90;;;;;;5090225;28;20441;-73
2023/04/29 03:19:44;;;;;;;24.80;15.10;;;9.10;99.90;;;;;;5088648;28;20409;-72
2023/04/29 03:22:10;;;;;;;21.83;14.38;;;9.10;99.90;;;;;;5089104;28;20417;-71
2023/04/29 03:24:39;;;;;;;24.63;14.70;;;9.10;99.90;;;;;;5089858;28;20409;-71
2023/04/29 03:27:05;;;;;;;25.17;15.10;;;9.10;99.90;;;;;;5087942;28;20820;-71
2023/04/29 03:29:30;;;;;;;25.33;15.48;;;9.10;99.90;;;;;;5092144;28;20513;-71
2023/04/29 03:31:57;;;;;;;29.30;16.30;;;9.10;99.90;;;;;;5090440;28;20412;-71
2023/04/29 03:34:23;;;;;;;27.10;16.20;;;9.10;99.90;;;;;;5091135;28;20402;-71
2023/04/29 03:36:53;;;;;;;27.70;17.15;;;9.10;99.90;;;;;;5093438;28;20455;-71
2023/04/29 03:39:18;;;;;;;27.35;17.38;;;9.10;99.90;;;;;;5090088;28;20398;-71
2023/04/29 03:41:46;;;;;;;28.37;16.63;;;9.10;99.90;;;;;;5090877;28;20461;-71
2023/04/29 03:44:11;;;;;;;24.83;16.03;;;9.10;99.90;;;;;;5071291;28;20421;-71
2023/04/29 03:46:37;;;;;;;25.70;16.47;;;9.10;99.90;;;;;;5092441;28;20397;-71
2023/04/29 03:49:03;;;;;;;24.80;16.23;;;9.10;99.90;;;;;;5091023;28;20478;-71
2023/04/29 03:51:28;;;;;;;24.73;16.07;;;9.10;99.90;;;;;;5091902;28;20765;-71
2023/04/29 03:53:58;;;;;;;30.00;15.70;;;9.10;99.90;;;;;;5089705;28;20405;-72
2023/04/29 03:56:26;;;;;;;24.40;15.43;;;9.10;99.90;;;;;;5092690;28;20428;-71
2023/04/29 03:58:52;;;;;;;26.63;15.87;;;9.10;99.90;;;;;;5091530;28;20429;-71
2023/04/29 04:01:18;;;;;;;26.35;14.63;;;9.20;99.90;;;;;;5090895;28;20426;-71
2023/04/29 04:03:44;;;;;;;25.65;14.45;;;9.10;99.90;;;;;;5087629;28;20768;-71
2023/04/29 04:06:10;;;;;;;24.50;14.40;;;9.20;99.90;;;;;;5093066;28;20392;-71
2023/04/29 04:08:35;;;;;;;24.00;14.03;;;9.10;99.90;;;;;;5090236;28;20408;-71
2023/04/29 04:11:04;;;;;;;22.45;13.50;;;9.20;99.90;;;;;;5075441;28;20483;-71
2023/04/29 04:13:29;;;;;;;20.58;13.48;;;9.20;99.90;;;;;;5091391;28;20410;-71
2023/04/29 04:15:55;;;;;;;25.50;14.45;;;9.10;99.90;;;;;;5093599;28;20398;-71
2023/04/29 04:18:21;;;;;;;23.23;13.53;;;9.20;99.90;;;;;;5090675;28;20406;-71
2023/04/29 04:20:46;;;;;;;20.98;13.02;;;9.10;99.90;;;;;;5086968;28;20501;-71
2023/04/29 04:23:12;;;;;;;20.53;13.27;;;9.10;99.90;;;;;;5088020;28;20428;-71
2023/04/29 04:25:43;;;;;;;22.98;14.05;;;9.10;99.90;;;;;;5089018;28;20409;-71
2023/04/29 04:28:09;;;;;;;23.50;13.75;;;9.10;99.90;;;;;;5089613;28;20398;-71
2023/04/29 04:30:35;;;;;;;22.63;13.40;;;9.10;99.90;;;;;;5090857;28;20515;-71
2023/04/29 04:33:01;;;;;;;22.37;14.67;;;9.10;99.90;;;;;;5090619;28;20418;-71
2023/04/29 04:35:26;;;;;;;24.77;14.00;;;9.20;99.90;;;;;;5091036;28;20402;-71
2023/04/29 04:37:52;;;;;;;22.73;14.23;;;9.20;99.90;;;;;;5090690;28;20397;-71
2023/04/29 04:40:18;;;;;;;26.60;16.27;;;9.20;99.90;;;;;;5090773;28;20398;-71
2023/04/29 04:42:43;;;;;;;28.38;16.90;;;9.20;99.90;;;;;;5089718;28;20968;-71
2023/04/29 04:45:10;;;;;;;26.90;17.27;;;9.20;99.90;;;;;;5088585;28;20515;-71
2023/04/29 04:47:36;;;;;;;25.88;17.55;;;9.20;99.90;;;;;;5090149;28;20405;-72
2023/04/29 04:50:03;;;;;;;27.98;17.75;;;9.20;99.90;;;;;;5089803;28;20426;-71
2023/04/29 04:52:28;;;;;;;27.17;17.73;;;9.20;99.90;;;;;;5089356;28;20484;-71
2023/04/29 04:54:55;;;;;;;25.87;15.90;;;9.20;99.90;;;;;;5072517;28;20547;-71
2023/04/29 04:57:20;;;;;;;24.50;14.38;;;9.20;99.90;;;;;;5089562;28;20866;-72
2023/04/29 04:59:46;;;;;;;20.38;13.48;;;9.20;99.90;;;;;;5089268;28;20512;-71
2023/04/29 05:02:11;;;;;;;20.87;12.60;;;9.20;99.90;;;;;;5089296;28;20410;-71
2023/04/29 05:04:37;;;;;;;20.35;12.50;;;9.20;99.90;;;;;;5089667;28;20394;-71
2023/04/29 05:07:02;;;;;;;16.80;11.10;;;9.20;99.90;;;;;;5088674;28;20402;-72
2023/04/29 05:09:28;;;;;;;16.92;11.10;;;9.20;99.90;;;;;;5087991;28;20433;-71
2023/04/29 05:11:54;;;;;;;17.67;10.90;;;9.20;99.90;;;;;;5089892;28;20398;-71
2023/04/29 05:14:20;;;;;;;18.05;10.70;;;9.20;99.90;;;;;;5088935;28;20575;-71
2023/04/29 05:16:46;;;;;;;18.90;10.80;;;9.20;99.90;;;;;;5088192;28;20522;-71
2023/04/29 05:19:11;;;;;;;17.93;11.20;;;9.20;99.90;;;;;;5088844;28;20447;-71
2023/04/29 05:21:37;;;;;;;17.70;10.77;;;9.20;99.90;;;;;;5088526;28;20398;-71
2023/04/29 05:24:03;;;;;;;15.83;10.37;;;9.30;99.90;;;;;;5087485;28;20401;-71
2023/04/29 05:26:28;;;;;;;18.08;10.18;;;9.30;99.90;;;;;;5069792;28;20959;-71
2023/04/29 05:28:54;;;;;;;16.65;9.85;;;9.30;99.90;;;;;;5087851;28;20402;-71
2023/04/29 05:31:20;;;;;;;17.67;10.23;;;9.30;99.90;;;;;;5088120;28;20402;-74
2023/04/29 05:33:46;;;;;;;15.95;10.27;;;9.30;99.90;;;;;;5070330;28;20441;-74
2023/04/29 05:36:11;;;;;;;18.75;10.18;;;9.40;99.90;;;;;;5086511;28;20402;-71
2023/04/29 05:38:37;;;;;;;16.07;9.93;;;9.40;99.90;;;;;;5089562;28;20406;-71
2023/04/29 05:41:02;;;;;;;16.85;10.02;;;9.40;99.90;;;;;;5088925;28;20398;-72
2023/04/29 05:43:28;;;;;;;16.83;10.00;;;9.50;99.90;;;;;;5093209;28;20396;-74
2023/04/29 05:45:55;;;;;;;14.80;9.90;;;9.50;99.90;;;;;;5090991;28;20406;-71
2023/04/29 05:48:20;;;;;;;16.02;10.25;;;9.50;99.90;;;;;;5091857;28;20418;-71
2023/04/29 05:50:47;;;;;;;17.00;11.07;;;9.60;99.90;;;;;;5088980;28;20528;-71
2023/04/29 05:53:13;;;;;;;16.13;9.82;;;9.60;99.90;;;;;;5091989;28;20418;-71
2023/04/29 05:55:39;;;;;;;12.63;9.15;;;9.70;99.90;;;;;;5090821;28;20406;-71
2023/04/29 05:58:05;;;;;;;14.77;9.35;;;9.70;99.90;;;;;;5073401;28;20417;-71
2023/04/29 06:00:30;;;;;;;16.63;10.13;;;9.60;99.90;;;;;;5086183;28;20402;-71
2023/04/29 06:02:56;;;;;;;13.90;8.60;;;9.60;99.90;;;;;;5088282;28;20414;-71
2023/04/29 06:05:22;;;;;;;14.02;8.50;;;9.70;99.90;;;;;;5085909;28;20420;-71
2023/04/29 06:07:48;;;;;;;15.02;8.88;;;9.60;99.90;;;;;;5069335;28;20406;-71
2023/04/29 06:10:14;;;;;;;12.68;8.45;;;9.70;99.90;;;;;;5068600;28;20430;-71
2023/04/29 06:12:39;;;;;;;14.47;8.23;;;9.70;99.90;;;;;;5087135;28;20401;-72
2023/04/29 06:15:06;;;;;;;12.77;7.72;;;9.70;99.90;;;;;;5069203;28;20912;-71
2023/04/29 06:17:32;;;;;;;12.68;8.20;;;9.70;99.90;;;;;;5085775;28;21093;-71
2023/04/29 06:19:57;;;;;;;14.88;8.20;;;9.70;99.90;;;;;;5090627;28;20492;-71
2023/04/29 06:22:23;;;;;;;13.87;8.33;;;9.70;99.90;;;;;;5092567;28;20406;-71
2023/04/29 06:24:48;;;;;;;16.17;8.15;;;9.70;99.90;;;;;;5089722;28;20568;-71
2023/04/29 06:27:15;;;;;;;12.73;8.00;;;9.60;99.90;;;;;;5089164;28;20410;-71
2023/04/29 06:29:41;;;;;;;15.07;8.40;;;9.60;99.90;;;;;;5089889;28;20501;-71
2023/04/29 06:32:07;;;;;;;12.55;7.57;;;9.50;99.90;;;;;;5091174;28;20406;-73
2023/04/29 06:34:33;;;;;;;13.52;7.65;;;9.60;99.90;;;;;;5090214;28;20536;-71
2023/04/29 06:36:59;;;;;;;12.90;7.15;;;9.60;99.90;;;;;;5089334;28;21575;-71
2023/04/29 06:39:24;;;;;;;12.63;7.90;;;9.70;99.90;;;;;;5090408;28;20402;-73
2023/04/29 06:41:51;;;;;;;11.32;7.35;;;9.70;99.90;;;;;;5089680;28;20406;-71
2023/04/29 06:44:17;;;;;;;13.27;7.90;;;9.70;99.90;;;;;;5089735;28;20908;-71
2023/04/29 06:46:43;;;;;;;13.20;7.60;;;9.70;99.90;;;;;;5089138;28;20968;-72
2023/04/29 06:49:09;;;;;;;13.60;7.27;;;9.80;99.90;;;;;;5105451;28;20507;-73
2023/04/29 06:51:36;;;;;;;14.48;7.78;;;9.90;99.90;;;;;;5088835;28;20408;-71
2023/04/29 06:54:02;;;;;;;11.30;7.17;;;9.90;99.90;;;;;;5089293;28;20405;-71
2023/04/29 06:56:28;;;;;;;13.97;7.23;;;10.00;99.90;;;;;;5088984;28;20503;-73
2023/04/29 06:58:54;;;;;;;14.00;8.00;;;10.10;99.90;;;;;;5088630;28;20867;-73
2023/04/29 07:01:20;;;;;;;13.50;7.32;;;10.10;99.90;;;;;;5088286;28;20768;-73
2023/04/29 07:03:45;;;;;;;12.85;7.00;;;10.20;99.90;;;;;;5072215;28;20402;-72
2023/04/29 07:06:11;;;;;;;15.30;7.60;;;10.20;99.90;;;;;;5091884;28;20414;-72
2023/04/29 07:08:37;;;;;;;16.98;7.45;;;10.20;99.90;;;;;;5084704;28;21051;-72
2023/04/29 07:11:03;;;;;;;13.75;6.95;;;10.20;99.90;;;;;;5082795;28;20430;-73
2023/04/29 07:13:29;;;;;;;12.00;6.10;;;10.40;99.90;;;;;;5090422;28;20486;-74
2023/04/29 07:15:55;;;;;;;11.75;6.20;;;10.30;99.90;;;;;;5091743;28;20402;-73
2023/04/29 07:18:20;;;;;;;10.00;6.10;;;10.40;99.90;;;;;;5083649;28;20416;-73
2023/04/29 07:20:46;;;;;;;10.63;6.27;;;10.50;99.90;;;;;;5086307;28;20405;-73
2023/04/29 07:23:13;;;;;;;12.00;6.13;;;10.50;99.90;;;;;;5085616;28;20448;-73
2023/04/29 07:25:39;;;;;;;9.82;5.80;;;10.50;99.90;;;;;;5078687;28;20406;-73
2023/04/29 07:28:05;;;;;;;10.95;5.45;;;10.60;99.90;;;;;;5082757;28;20447;-73
2023/04/29 07:30:31;;;;;;;8.68;5.93;;;10.60;99.90;;;;;;5073432;28;20562;-74
2023/04/29 07:32:57;;;;;;;8.50;5.35;;;10.70;99.90;;;;;;5074778;28;20407;-74
2023/04/29 07:35:23;;;;;;;9.87;5.80;;;10.70;99.90;;;;;;5081183;28;20408;-73
2023/04/29 07:37:49;;;;;;;10.90;5.55;;;10.70;99.90;;;;;;5088100;28;20440;-74
2023/04/29 07:40:14;;;;;;;10.35;5.90;;;10.80;99.90;;;;;;5077999;28;20417;-73
2023/04/29 07:42:40;;;;;;;11.52;5.60;;;10.70;99.90;;;;;;5070800;28;20472;-74
2023/04/29 07:45:06;;;;;;;10.03;5.80;;;10.80;99.90;;;;;;5079481;28;20762;-73
2023/04/29 07:47:32;;;;;;;11.38;6.28;;;10.80;99.90;;;;;;5082235;28;20922;-73
2023/04/29 07:49:57;;;;;;;11.55;6.20;;;10.90;99.90;;;;;;5079965;28;20444;-73
2023/04/29 07:52:23;;;;;;;10.03;5.87;;;10.90;99.90;;;;;;5079362;28;20502;-74
2023/04/29 07:54:49;;;;;;;11.20;6.72;;;10.90;99.90;;;;;;5077927;28;20482;-74
2023/04/29 07:57:14;;;;;;;10.00;6.23;;;10.90;99.90;;;;;;5077258;28;20773;-71
2023/04/29 07:59:40;;;;;;;12.93;6.23;;;10.90;99.90;;;;;;5081853;28;20415;-73
2023/04/29 08:02:06;;;;;;;11.52;6.05;;;10.90;99.90;;;;;;5083044;28;20404;-73
2023/04/29 08:04:31;;;;;;;9.87;6.13;;;10.90;99.90;;;;;;5082507;28;20398;-73
2023/04/29 08:06:57;;;;;;;10.15;5.63;;;11.00;99.90;;;;;;5071241;28;20396;-73
2023/04/29 08:09:23;;;;;;;11.95;6.22;;;11.00;99.90;;;;;;5072268;28;20937;-73
2023/04/29 08:11:48;;;;;;;11.13;5.80;;;11.10;99.90;;;;;;5085709;28;20787;-74
2023/04/29 08:14:14;;;;;;;9.82;5.80;;;11.10;99.90;;;;;;5081705;28;20399;-72
2023/04/29 08:16:40;;;;;;;12.60;6.23;;;11.20;99.90;;;;;;5080874;28;20414;-72
2023/04/29 08:19:05;;;;;;;10.85;6.13;;;11.30;99.90;;;;;;5085903;28;20414;-73
2023/04/29 08:21:31;;;;;;;12.13;6.07;;;11.30;99.90;;;;;;5087023;28;20409;-73
2023/04/29 08:23:57;;;;;;;10.93;5.90;;;11.40;99.90;;;;;;5079458;28;20406;-73
2023/04/29 08:26:23;;;;;;;9.57;5.80;;;11.50;99.90;;;;;;5088485;28;20547;-69
2023/04/29 08:28:48;;;;;;;10.87;5.60;;;11.60;99.90;;;;;;5089616;28;20427;-72
2023/04/29 08:31:18;;;;;;;9.23;5.05;;;11.60;99.90;;;;;;5090457;28;20414;-72
2023/04/29 08:33:44;;;;;;;10.90;4.90;;;11.60;99.90;;;;;;5090773;28;20969;-72
2023/04/29 08:36:10;;;;;;;8.27;3.63;;;11.70;99.90;;;;;;5085398;28;20413;-72
2023/04/29 08:38:36;;;;;;;8.90;3.67;;;11.70;99.90;;;;;;5085354;28;20869;-73
2023/04/29 08:41:01;;;;;;;7.90;3.50;;;11.70;99.90;;;;;;5083432;28;20425;-72
2023/04/29 08:43:28;;;;;;;9.43;3.83;;;11.70;99.90;;;;;;5088352;28;20410;-72
2023/04/29 08:45:56;;;;;;;7.78;3.30;;;11.70;99.90;;;;;;5090532;28;20417;-72
2023/04/29 08:48:22;;;;;;;7.63;2.85;;;11.80;99.90;;;;;;5089897;28;20496;-72
2023/04/29 08:50:48;;;;;;;7.35;2.90;;;11.80;99.90;;;;;;5090733;28;20532;-73
2023/04/29 08:53:14;;;;;;;5.60;2.58;;;11.80;99.90;;;;;;5090472;28;20421;-72
2023/04/29 08:55:42;;;;;;;10.02;3.15;;;11.90;99.90;;;;;;5090550;28;20438;-70
2023/04/29 08:58:09;;;;;;;7.80;2.50;;;11.90;99.90;;;;;;5088414;28;20416;-69
2023/04/29 09:00:35;;;;;;;7.28;2.30;;;12.00;99.90;;;;;;5089920;28;20406;-70
2023/04/29 09:03:13;;;;;;;5.78;2.38;;;12.10;99.90;;;;;;5087634;28;20413;-71
2023/04/29 09:05:40;;;;;;;6.93;2.40;;;12.10;99.90;;;;;;5070381;28;20440;-70
2023/04/29 09:08:07;;;;;;;8.27;2.40;;;12.20;99.90;;;;;;5088223;28;20927;-67
2023/04/29 09:10:36;;;;;;;6.47;2.75;;;12.20;99.90;;;;;;5090095;28;20520;-69
2023/04/29 09:13:01;;;;;;;7.78;2.40;;;12.20;99.90;;;;;;5090875;28;20494;-70
2023/04/29 09:15:27;;;;;;;9.07;2.70;;;12.30;99.90;;;;;;5092927;28;20426;-70
2023/04/29 09:17:53;;;;;;;8.50;2.70;;;12.30;99.90;;;;;;5087087;28;20414;-71
2023/04/29 09:20:19;;;;;;;6.50;2.70;;;12.40;99.90;;;;;;5089405;28;20448;-69
2023/04/29 09:23:05;;;;;;;9.70;2.72;;;12.50;99.90;;;;;;5088388;28;20417;-70
2023/04/29 09:25:30;;;;;;;7.97;3.00;;;13.00;99.90;;;;;;5086606;28;20414;-69
2023/04/29 09:27:56;;;;;;;6.80;2.20;;;13.60;99.90;;;;;;5085230;28;20435;-71
2023/04/29 09:30:23;;;;;;;6.68;2.33;;;14.10;99.90;;;;;;5085059;28;20434;-71
2023/04/29 09:33:06;;;;;;;7.93;3.10;;;14.50;99.90;;;;;;5088092;28;20402;-71
2023/04/29 09:35:32;;;;;;;8.33;2.60;;;15.00;99.90;;;;;;5087106;28;20421;-71
2023/04/29 09:38:27;;;;;;;7.83;2.80;;;15.30;99.90;;;;;;5085100;28;20414;-71
2023/04/29 09:40:55;;;;;;;7.60;2.80;;;15.70;99.90;;;;;;5062429;28;20444;-72
2023/04/29 09:43:20;;;;;;;6.77;2.67;;;16.00;99.90;;;;;;5072166;28;20412;-73
2023/04/29 09:45:47;;;;;;;5.47;2.53;;;16.20;99.90;;;;;;5090758;28;20038;-72
2023/04/29 09:48:14;;;;;;;6.60;2.40;;;16.40;99.90;;;;;;5089083;28;20051;-72
2023/04/29 09:50:42;;;;;;;5.75;2.42;;;16.50;99.90;;;;;;5093352;28;20108;-70
2023/04/29 09:53:10;;;;;;;4.95;2.58;;;16.70;99.90;;;;;;5089325;28;20111;-72
2023/04/29 09:55:56;;;;;;;4.80;2.58;;;16.90;99.90;;;;;;5092521;28;20055;-71
2023/04/29 09:58:35;;;;;;;;;;;17.00;99.90;;;;;;5087350;28;20127;-71
2023/04/29 10:01:02;;;;;;;;;;;17.10;99.90;;;;;;5094179;28;19920;-71
2023/04/29 10:03:35;;;;;;;;;;;17.30;99.90;;;;;;5090341;28;19924;-71
2023/04/29 10:06:01;;;;;;;;;;;17.40;99.90;;;;;;5099173;28;20309;-71
2023/04/29 10:08:30;;;;;;;;;;;17.40;99.90;;;;;;5092584;28;19978;-72
2023/04/29 10:11:00;;;;;;;;;;;17.60;99.90;;;;;;5097994;28;20441;-71
2023/04/29 10:13:27;;;;;;;;;;;17.70;99.90;;;;;;5092942;28;20006;-69
2023/04/29 10:16:11;;;;;;;;;;;17.90;99.90;;;;;;5098466;28;20469;-72
2023/04/29 10:18:39;;;;;;;;;;;18.10;99.90;;;;;;5089200;28;19943;-72
2023/04/29 10:21:06;;;;;;;;;;;18.30;99.90;;;;;;5093495;28;19932;-72
2023/04/29 10:23:32;;;;;;;;;;;18.40;99.90;;;;;;5088973;28;19927;-72
2023/04/29 10:25:58;;;;;;;;;;;18.40;99.90;;;;;;5089383;28;19924;-72
2023/04/29 10:28:24;;;;;;;;;;;18.40;99.90;;;;;;5085444;28;19923;-73
2023/04/29 10:30:51;;;;;;;;;;;18.50;99.90;;;;;;5089267;28;19920;-72
2023/04/29 10:33:17;;;;;;;;;;;18.50;99.90;;;;;;5082411;28;19924;-72
2023/04/29 10:35:46;;;;;;;;;;;18.70;99.90;;;;;;5089305;28;19973;-72
2023/04/29 10:38:20;;;;;;;;;;;18.80;99.90;;;;;;5088877;28;19927;-72
2023/04/29 10:40:46;;;;;;;;;;;18.90;99.90;;;;;;5085838;28;19926;-72
2023/04/29 10:43:12;;;;;;;;;;;19.10;99.90;;;;;;5070406;28;20011;-72
2023/04/29 10:45:38;;;;;;;;;;;19.20;99.90;;;;;;5089544;28;20002;-72
2023/04/29 10:48:10;;;;;;;;;;;19.30;98.70;;;;;;5089142;28;20290;-72
2023/04/29 10:50:36;;;;;;;;;;;19.30;98.70;;;;;;5081528;28;20306;-72
2023/04/29 10:53:02;;;;;;;;;;;19.20;97.60;;;;;;5087238;28;19924;-72
2023/04/29 10:55:28;;;;;;;4.80;2.03;;;19.20;96.50;;;;;;5089057;28;19977;-72
2023/04/29 10:57:55;;;;;;;4.93;1.88;;;19.30;96.90;;;;;;5086481;28;20410;-73
2023/04/29 11:00:29;;;;;;;5.03;1.90;;;19.20;94.50;;;;;;5082547;28;20409;-72
2023/04/29 11:03:00;;;;;;;5.90;2.30;;;19.20;97.50;;;;;;5069601;28;20451;-73
2023/04/29 11:05:35;;;;;;;9.07;2.78;;;19.30;97.90;;;;;;5084692;28;20404;-72
2023/04/29 11:08:12;;;;;;;6.30;2.30;;;19.30;98.90;;;;;;5084260;28;20493;-72
2023/04/29 11:10:42;;;;;;;6.30;2.35;;;19.40;96.70;;;;;;5082797;28;21243;-72
2023/04/29 11:13:27;;;;;;;7.68;2.53;;;19.50;97.40;;;;;;5074433;28;20404;-72
2023/04/29 11:16:02;;;;;;;5.40;1.65;;;19.50;96.80;;;;;;5085660;28;20412;-73
2023/04/29 11:18:28;;;;;;;4.10;1.57;;;19.60;96.20;;;;;;5083621;28;20546;-73
2023/04/29 11:21:06;;;;;;;5.55;1.83;;;19.70;95.20;;;;;;5081654;28;20492;-72
2023/04/29 11:23:35;;;;;;;3.90;1.20;;;19.80;95.20;;;;;;5081720;28;20414;-72
2023/04/29 11:26:01;;;;;;;;;;;20.00;91.10;;;;;;5092840;28;20044;-73
2023/04/29 11:28:27;;;;;;;;;;;20.00;91.50;;;;;;5082929;28;20410;-73
2023/04/29 11:30:52;;;;;;;;;;;20.20;90.60;;;;;;5081533;28;19970;-72
2023/04/29 11:33:21;;;;;;;;;;;20.30;88.90;;;;;;5087762;28;19920;-73
2023/04/29 11:35:47;;;;;;;;;;;20.40;90.20;;;;;;5083436;28;19920;-73
2023/04/29 11:38:13;;;;;;;;;;;20.40;88.30;;;;;;5082561;28;20430;-73
2023/04/29 11:40:41;;;;;;;;;;;20.50;86.40;;;;;;5085642;28;19924;-72
2023/04/29 11:43:07;;;;;;;;;;;20.50;89.20;;;;;;5089850;28;20006;-72
2023/04/29 11:45:34;;;;;;;;;;;20.50;88.40;;;;;;5091893;28;20354;-72
2023/04/29 11:48:00;;;;;;;;;;;20.60;89.60;;;;;;5082213;28;19921;-73
2023/04/29 11:50:26;;;;;;;;;;;20.60;83.30;;;;;;5089007;28;19920;-72
2023/04/29 11:52:52;;;;;;;;;;;20.50;84.20;;;;;;5093155;28;19927;-71
2023/04/29 11:55:17;;;;;;;;;;;20.50;86.60;;;;;;5091375;28;19920;-71
2023/04/29 11:57:43;;;;;;;;;;;20.50;85.60;;;;;;5098065;28;19965;-71
2023/04/29 12:00:11;;;;;;;;;;;20.50;88.00;;;;;;5094056;28;19991;-71
2023/04/29 12:02:37;;;;;;;;;;;20.60;86.90;;;;;;5091332;28;19977;-72
2023/04/29 12:05:07;;;;;;;;;;;20.70;85.40;;;;;;5093636;28;19924;-71
2023/04/29 12:07:33;;;;;;;;;;;20.60;87.00;;;;;;5098527;28;20317;-72
2023/04/29 12:09:59;;;;;;;;;;;20.50;87.70;;;;;;5096623;28;19924;-71
2023/04/29 12:12:26;;;;;;;;;;;20.50;87.40;;;;;;5094052;28;20885;-71
2023/04/29 12:14:52;;;;;;;;;;;20.40;88.90;;;;;;5095783;28;20080;-71
2023/04/29 12:17:18;;;;;;;;;;;20.40;90.20;;;;;;5099359;28;19920;-71
2023/04/29 12:19:44;;;;;;;;;;;20.50;85.50;;;;;;5097439;28;19920;-71
2023/04/29 12:22:10;;;;;;;;;;;20.60;85.40;;;;;;5090464;28;19966;-71
2023/04/29 12:24:37;;;;;;;;;;;20.60;81.90;;;;;;5091037;28;20390;-71
2023/04/29 12:27:03;;;;;;;;;;;20.70;84.50;;;;;;5086639;28;19928;-71
2023/04/29 12:29:30;;;;;;;;;;;21.00;82.10;;;;;;5090577;28;19977;-71
2023/04/29 12:31:55;;;;;;;;;;;21.10;80.00;;;;;;5090809;28;19920;-72
2023/04/29 12:34:25;;;;;;;;;;;21.00;76.10;;;;;;5072766;28;19927;-71
2023/04/29 12:36:53;;;;;;;;;;;20.90;76.10;;;;;;5089927;28;20459;-71
2023/04/29 12:39:18;;;;;;;;;;;21.00;74.30;;;;;;5091132;28;19927;-71
2023/04/29 12:41:44;;;;;;;;;;;21.10;76.20;;;;;;5089510;28;19920;-72
2023/04/29 12:44:10;;;;;;;;;;;21.20;71.70;;;;;;5090255;28;20022;-71
2023/04/29 12:46:36;;;;;;;;;;;21.40;73.90;;;;;;5090155;28;19920;-72
2023/04/29 12:49:03;;;;;;;;;;;21.60;73.00;;;;;;5089306;28;19920;-72
2023/04/29 12:51:31;;;;;;;;;;;21.70;72.70;;;;;;5094348;28;19931;-72
2023/04/29 12:53:57;;;;;;;;;;;21.80;69.30;;;;;;5093244;28;19920;-72
2023/04/29 12:56:22;;;;;;;;;;;21.90;71.10;;;;;;5093082;28;20373;-72
2023/04/29 12:58:48;;;;;;;;;;;22.00;69.90;;;;;;5092728;28;19924;-71